Nearby METAR Reports

 

EGTE - Exeter Airport, United Kingdom
Distance from station: S 19km
Updated: 15/07/2020 16:50
NOT Current
Mostly cloudy
Mostly cloudy
 Wind from WNW
Wind: WNW 22 km/h
Temperature: 18°C
Dew Point: 12°C
Humidity: 68%
Barometer: 1018 hPa
Clouds: Mostly cloudy
Visibility: 10 km
Cloud details: Mostly cloudy 701 m
2020/07/15 15:50 EGTE 151550Z 29012KT 9999 BKN023 18/12 Q1018
EGDY - Yeovilton (navy), United Kingdom
Distance from station: ENE 55km
Updated: 15/07/2020 18:20
Mostly cloudy
Mostly cloudy
 Wind from NW
Wind: NW 20 km/h
Temperature: 17°C
Dew Point: 13°C
Humidity: 77%
Barometer: 1017 hPa
Clouds: Mostly cloudy
Visibility: 10 km
Cloud details: Few Clouds 549 m
Mostly cloudy 914 m
2020/07/15 17:20 EGDY 151720Z 31011KT 9999 FEW018 BKN030 17/13 Q1017 NOSIG RMK BLU BLU
 
EGFF - Cardiff-Wales Ar, United Kingdom
Distance from station: N 56km
Updated: 15/07/2020 18:20
Overcast
Overcast
 Wind from WNW
Wind: WNW 24 km/h
Temperature: 17°C
Dew Point: 13°C
Humidity: 77%
Barometer: 1018 hPa
Clouds: Overcast
Visibility: 10 km
Cloud details: Partly cloudy 549 m
Mostly cloudy 732 m
Overcast 884 m
2020/07/15 17:20 EGFF 151720Z AUTO 29013KT 9999 SCT018 BKN024 OVC029 17/13 Q1018
EGDX - St Athan Raf, United Kingdom
Distance from station: N 58km
Updated: 01/04/2019 13:50
NOT Current
Clear
Clear
 Wind from E
Wind: E 15 km/h
Temperature: 11°C
Dew Point: 5°C
Humidity: 67%
Barometer: 1019 hPa
Clouds: Clear
Visibility: 10 km
2019/04/01 12:50 EGDX 011250Z AUTO 10008KT 9999 NCD 11/05 Q1019
 
EGGD - Bristol/Lulsgate, United Kingdom
Distance from station: NE 71km
Updated: 15/07/2020 18:20
Mostly cloudy
Mostly cloudy
 Wind from W
Wind: W 26 km/h
Temperature: 16°C
Dew Point: 13°C
Humidity: 83%
Barometer: 1017 hPa
Clouds: Mostly cloudy
Visibility: 10 km
Cloud details: Partly cloudy 305 m
Partly cloudy 518 m
Mostly cloudy 884 m
2020/07/15 17:20 EGGD 151720Z AUTO 26014KT 9999 SCT010 SCT017 BKN029 16/13 Q1017